createdAt,value
2022-09-23T00:01:44.289Z,100398.94
2022-09-23T00:04:13.225Z,100405.91
2022-09-23T00:06:44.279Z,100384.19
2022-09-23T00:09:13.220Z,100396.22
2022-09-23T00:11:41.761Z,100396.22
2022-09-23T00:14:11.970Z,100391.09
2022-09-23T00:16:40.652Z,100393.00
2022-09-23T00:19:09.018Z,100383.63
2022-09-23T00:21:37.684Z,100389.88
2022-09-23T00:24:08.200Z,100393.41
2022-09-23T00:26:36.857Z,100378.69
2022-09-23T00:29:05.831Z,100389.16
2022-09-23T00:31:34.630Z,100387.56
2022-09-23T00:34:03.609Z,100381.56
2022-09-23T00:36:33.538Z,100391.16
2022-09-23T00:39:04.525Z,100387.72
2022-09-23T00:41:35.620Z,100383.41
2022-09-23T00:44:44.766Z,100374.81
2022-09-23T00:47:19.599Z,100380.03
2022-09-23T00:49:54.633Z,100381.75
2022-09-23T00:52:25.277Z,100384.25
2022-09-23T00:55:00.182Z,100381.53
2022-09-23T00:57:31.446Z,100387.56
2022-09-23T01:00:03.176Z,100378.84
2022-09-23T01:02:35.179Z,100386.59
2022-09-23T01:05:08.840Z,100381.41
2022-09-23T01:07:40.262Z,100384.13
2022-09-23T01:10:13.855Z,100386.69
2022-09-23T01:13:08.402Z,100391.06
2022-09-23T01:15:43.073Z,100385.06
2022-09-23T01:18:28.897Z,100388.47
2022-09-23T01:21:19.789Z,100386.69
2022-09-23T01:24:32.208Z,100387.56
2022-09-23T01:27:13.918Z,100383.22
2022-09-23T01:30:11.289Z,100392.84
2022-09-23T01:32:56.939Z,100384.16
2022-09-23T01:35:31.061Z,100385.94
2022-09-23T01:38:11.838Z,100384.22
2022-09-23T01:40:50.502Z,100386.97
2022-09-23T01:43:26.070Z,100382.69
2022-09-23T01:46:00.006Z,100387.88
2022-09-23T01:48:37.879Z,100387.91
2022-09-23T01:51:34.493Z,100382.59
2022-09-23T01:54:21.116Z,100391.38
2022-09-23T01:56:55.319Z,100385.38
2022-09-23T01:59:30.318Z,100382.84
2022-09-23T02:02:05.840Z,100377.69
2022-09-23T02:04:45.833Z,100378.78
2022-09-23T02:07:21.936Z,100382.50
2022-09-23T02:09:55.061Z,100382.75
2022-09-23T02:12:25.833Z,100378.59
2022-09-23T02:15:04.091Z,100376.22
2022-09-23T02:17:40.966Z,100392.09
2022-09-23T02:20:16.306Z,100387.94
2022-09-23T02:22:52.904Z,100378.66
2022-09-23T02:25:25.630Z,100395.31
2022-09-23T02:28:01.121Z,100386.72
2022-09-23T02:30:34.246Z,100389.38
2022-09-23T02:33:08.016Z,100378.13
2022-09-23T02:35:44.662Z,100384.31
2022-09-23T02:38:22.745Z,100380.03
2022-09-23T02:40:58.845Z,100385.19
2022-09-23T02:43:35.725Z,100383.50
2022-09-23T02:46:06.137Z,100381.91
2022-09-23T02:48:40.904Z,100378.56
2022-09-23T02:51:11.710Z,100383.75
2022-09-23T02:53:41.665Z,100383.00
2022-09-23T02:56:19.862Z,100376.19
2022-09-23T02:58:49.730Z,100382.31
2022-09-23T03:01:32.044Z,100375.41
2022-09-23T03:04:14.908Z,100377.09
2022-09-23T03:07:00.877Z,100375.34
2022-09-23T03:09:34.898Z,100381.31
2022-09-23T03:12:13.989Z,100378.69
2022-09-23T03:14:52.002Z,100382.09
2022-09-23T03:17:27.325Z,100375.22
2022-09-23T03:20:02.652Z,100366.47
2022-09-23T03:22:36.911Z,100373.47
2022-09-23T03:25:10.800Z,100371.84
2022-09-23T03:27:42.653Z,100372.75
2022-09-23T03:30:11.863Z,100375.41
2022-09-23T03:32:44.158Z,100367.63
2022-09-23T03:35:14.558Z,100371.97
2022-09-23T03:37:52.142Z,100368.47
2022-09-23T03:40:25.544Z,100375.34
2022-09-23T03:42:57.392Z,100375.31
2022-09-23T03:45:31.019Z,100377.00
2022-09-23T03:47:59.858Z,100373.50
2022-09-23T03:50:29.107Z,100376.09
2022-09-23T03:52:59.626Z,100379.50
2022-09-23T03:55:28.419Z,100382.97
2022-09-23T03:57:57.320Z,100388.97
2022-09-23T04:00:26.006Z,100380.19
2022-09-23T04:02:55.082Z,100377.50
2022-09-23T04:05:24.240Z,100372.19
2022-09-23T04:07:53.311Z,100366.00
2022-09-23T04:10:26.603Z,100372.88
2022-09-23T04:12:56.246Z,100373.59
2022-09-23T04:15:25.085Z,100369.13
2022-09-23T04:17:55.569Z,100374.28
2022-09-23T04:20:29.933Z,100374.13
2022-09-23T04:23:04.237Z,100377.53
2022-09-23T04:25:37.140Z,100381.72
2022-09-23T04:28:13.077Z,100380.88
2022-09-23T04:30:43.982Z,100381.66
2022-09-23T04:33:13.708Z,100389.38
2022-09-23T04:35:47.811Z,100387.59
2022-09-23T04:38:18.860Z,100390.97
2022-09-23T04:40:55.675Z,100388.34
2022-09-23T04:43:24.841Z,100378.66
2022-09-23T04:46:02.603Z,100382.06
2022-09-23T04:48:31.935Z,100385.53
2022-09-23T04:51:05.666Z,100379.41
2022-09-23T04:53:34.964Z,100378.44
2022-09-23T04:56:09.764Z,100378.31
2022-09-23T04:58:41.043Z,100383.44
2022-09-23T05:01:11.919Z,100379.09
2022-09-23T05:03:41.655Z,100373.81
2022-09-23T05:06:13.906Z,100378.16
2022-09-23T05:08:43.215Z,100378.09
2022-09-23T05:11:13.821Z,100384.09
2022-09-23T05:13:42.901Z,100383.06
2022-09-23T05:16:13.569Z,100388.16
2022-09-23T05:18:44.739Z,100387.25
2022-09-23T05:21:16.027Z,100387.22
2022-09-23T05:23:54.595Z,100383.63
2022-09-23T05:26:26.803Z,100386.94
2022-09-23T05:28:58.980Z,100392.09
2022-09-23T05:31:29.642Z,100386.88
2022-09-23T05:34:01.076Z,100385.94
2022-09-23T05:36:36.893Z,100386.75
2022-09-23T05:39:07.818Z,100392.78
2022-09-23T05:41:41.857Z,100388.44
2022-09-23T05:44:18.526Z,100396.13
2022-09-23T05:46:47.946Z,100395.16
2022-09-23T05:49:17.183Z,100395.09
2022-09-23T05:51:46.228Z,100395.97
2022-09-23T05:54:18.151Z,100397.72
2022-09-23T05:56:49.811Z,100394.25
2022-09-23T05:59:22.988Z,100395.06
2022-09-23T06:01:54.469Z,100400.22
2022-09-23T06:04:27.367Z,100405.44
2022-09-23T06:07:02.776Z,100400.25
2022-09-23T06:09:36.564Z,100405.47
2022-09-23T06:12:07.815Z,100406.31
2022-09-23T06:14:37.362Z,100398.28
2022-09-23T06:17:12.241Z,100393.72
2022-09-23T06:19:41.697Z,100391.72
2022-09-23T06:22:11.484Z,100392.16
2022-09-23T06:24:40.374Z,100395.22
2022-09-23T06:27:11.160Z,100390.59
2022-09-23T06:29:40.482Z,100396.31
2022-09-23T06:32:10.696Z,100402.03
2022-09-23T06:34:51.275Z,100405.06
2022-09-23T06:37:23.787Z,100402.84
2022-09-23T06:39:55.767Z,100405.03
2022-09-23T06:42:27.023Z,100400.03
2022-09-23T06:44:55.875Z,100409.19
2022-09-23T06:47:25.637Z,100403.75
2022-09-23T06:49:55.724Z,100399.22
2022-09-23T06:52:25.446Z,100399.22
2022-09-23T06:54:54.698Z,100407.00
2022-09-23T06:57:24.708Z,100403.38
2022-09-23T06:59:55.535Z,100405.72
2022-09-23T07:02:24.729Z,100408.84
2022-09-23T07:04:53.815Z,100413.84
2022-09-23T07:07:26.822Z,100404.88
2022-09-23T07:09:56.097Z,100400.03
2022-09-23T07:12:25.057Z,100416.00
2022-09-23T07:14:55.489Z,100413.69
2022-09-23T07:17:24.698Z,100416.53
2022-09-23T07:19:55.406Z,100416.00
2022-09-23T07:22:25.049Z,100423.06
2022-09-23T07:24:56.380Z,100412.66
2022-09-23T07:27:26.445Z,100416.19
2022-09-23T07:30:12.983Z,100418.81
2022-09-23T07:32:50.640Z,100412.66
2022-09-23T07:36:08.602Z,100418.34
2022-09-23T07:38:42.852Z,100421.22
2022-09-23T07:41:16.356Z,100416.78
2022-09-23T07:43:55.825Z,100418.22
2022-09-23T07:46:27.826Z,100414.03
2022-09-23T07:48:59.503Z,100414.38
2022-09-23T07:51:35.418Z,100421.16
2022-09-23T07:54:10.226Z,100416.81
2022-09-23T07:56:43.914Z,100416.53
2022-09-23T07:59:15.625Z,100417.31
2022-09-23T08:01:48.564Z,100413.53
2022-09-23T08:04:20.074Z,100406.81
2022-09-23T08:06:50.742Z,100413.91
2022-09-23T08:09:21.497Z,100413.31
2022-09-23T08:11:52.306Z,100420.06
2022-09-23T08:14:24.043Z,100419.66
2022-09-23T08:16:56.179Z,100414.75
2022-09-23T08:19:25.652Z,100418.25
2022-09-23T08:21:54.746Z,100419.44
2022-09-23T08:24:26.235Z,100412.97
2022-09-23T08:26:58.261Z,100402.47
2022-09-23T08:29:30.011Z,100418.75
2022-09-23T08:32:01.284Z,100412.19
2022-09-23T08:34:30.360Z,100416.50
2022-09-23T08:36:59.687Z,100413.72
2022-09-23T08:39:28.749Z,100408.59
2022-09-23T08:42:11.882Z,100408.91
2022-09-23T08:44:48.471Z,100407.75
2022-09-23T08:47:24.948Z,100410.91
2022-09-23T08:50:01.281Z,100412.50
2022-09-23T08:52:50.758Z,100410.78
2022-09-23T08:55:23.497Z,100419.81
2022-09-23T08:58:24.528Z,100415.09
2022-09-23T09:01:01.289Z,100415.22
2022-09-23T09:03:36.953Z,100404.47
2022-09-23T09:06:06.196Z,100405.69
2022-09-23T09:08:38.857Z,100400.44
2022-09-23T09:11:10.972Z,100401.03
2022-09-23T09:13:49.156Z,100402.84
2022-09-23T09:16:58.314Z,100398.78
2022-09-23T09:19:44.192Z,100409.09
2022-09-23T09:25:22.185Z,100385.22
2022-09-23T09:27:54.763Z,100383.66
2022-09-23T09:30:30.025Z,100392.06
2022-09-23T09:33:04.515Z,100386.56
2022-09-23T09:35:40.111Z,100391.75
2022-09-23T09:38:09.220Z,100382.81
2022-09-23T09:40:46.744Z,100378.34
2022-09-23T09:43:23.782Z,100377.19
2022-09-23T09:46:06.853Z,100374.06
2022-09-23T09:48:41.100Z,100369.31
2022-09-23T09:51:21.881Z,100370.88
2022-09-23T09:53:52.824Z,100370.63
2022-09-23T09:56:31.489Z,100361.22
2022-09-23T09:59:11.087Z,100366.63
2022-09-23T10:01:40.049Z,100364.25
2022-09-23T10:04:23.192Z,100369.97
2022-09-23T10:07:13.199Z,100372.88
2022-09-23T10:09:50.795Z,100372.22
2022-09-23T10:12:24.714Z,100366.09
2022-09-23T10:14:58.070Z,100367.19
2022-09-23T10:17:35.583Z,100366.41
2022-09-23T10:20:09.620Z,100373.31
2022-09-23T10:22:42.826Z,100359.50
2022-09-23T10:25:18.437Z,100352.84
2022-09-23T10:27:50.341Z,100351.44
2022-09-23T10:30:24.200Z,100358.84
2022-09-23T10:32:57.185Z,100351.09
2022-09-23T10:35:28.520Z,100348.78
2022-09-23T10:38:01.073Z,100335.34
2022-09-23T10:40:51.020Z,100342.16
2022-09-23T10:43:57.339Z,100342.59
2022-09-23T10:46:42.812Z,100342.31
2022-09-23T10:49:54.009Z,100343.91
2022-09-23T10:52:42.363Z,100333.09
2022-09-23T10:55:29.107Z,100329.00
2022-09-23T10:58:17.795Z,100334.19
2022-09-23T11:00:54.035Z,100336.44
2022-09-23T11:04:04.334Z,100333.22
2022-09-23T11:06:43.361Z,100332.19
2022-09-23T11:09:35.244Z,100335.41
2022-09-23T11:12:35.818Z,100339.09
2022-09-23T11:15:46.108Z,100326.84
2022-09-23T11:19:00.529Z,100326.63
2022-09-23T11:21:48.491Z,100328.25
2022-09-23T11:28:41.635Z,100318.88
2022-09-23T11:31:47.770Z,100310.59
2022-09-23T11:34:49.861Z,100308.75
2022-09-23T11:37:49.479Z,100308.06
2022-09-23T11:40:43.930Z,100303.66
2022-09-23T11:43:23.796Z,100304.38
2022-09-23T11:46:00.544Z,100302.13
2022-09-23T11:48:38.225Z,100285.50
2022-09-23T11:51:14.044Z,100285.53
2022-09-23T11:53:49.283Z,100280.03
2022-09-23T11:56:33.816Z,100275.66
2022-09-23T11:59:11.796Z,100274.44
2022-09-23T12:01:46.979Z,100269.41
2022-09-23T12:04:25.758Z,100273.50
2022-09-23T12:07:02.099Z,100270.41
2022-09-23T12:09:57.325Z,100267.22
2022-09-23T12:12:35.679Z,100260.78
2022-09-23T12:15:08.164Z,100269.94
2022-09-23T12:17:51.284Z,100272.91
2022-09-23T12:20:43.074Z,100260.50
2022-09-23T12:23:28.924Z,100263.63
2022-09-23T12:26:02.156Z,100249.72
2022-09-23T12:28:38.047Z,100259.47
2022-09-23T12:31:12.379Z,100259.81
2022-09-23T12:33:49.979Z,100246.91
2022-09-23T12:36:28.017Z,100253.28
2022-09-23T12:39:03.413Z,100251.97
2022-09-23T12:41:37.380Z,100254.22
2022-09-23T12:44:37.224Z,100253.97
2022-09-23T12:47:34.755Z,100246.84
2022-09-23T12:50:03.676Z,100247.13
2022-09-23T12:52:38.746Z,100250.00
2022-09-23T12:55:53.193Z,100245.59
2022-09-23T12:58:39.670Z,100238.88
2022-09-23T13:01:20.683Z,100240.28
2022-09-23T13:04:10.491Z,100227.09
2022-09-23T13:06:42.642Z,100230.41
2022-09-23T13:09:16.574Z,100238.00
2022-09-23T13:11:48.252Z,100232.69
2022-09-23T13:14:26.683Z,100231.06
2022-09-23T13:16:59.348Z,100223.75
2022-09-23T13:19:47.063Z,100228.81
2022-09-23T13:22:15.996Z,100228.69
2022-09-23T13:24:57.264Z,100228.03
2022-09-23T13:27:32.459Z,100221.66
2022-09-23T13:30:08.002Z,100220.13
2022-09-23T13:32:48.131Z,100215.97
2022-09-23T13:35:29.908Z,100215.13
2022-09-23T13:38:03.657Z,100205.38
2022-09-23T13:40:38.711Z,100196.44
2022-09-23T13:43:13.205Z,100202.84
2022-09-23T13:45:44.397Z,100210.59
2022-09-23T13:48:15.363Z,100202.19
2022-09-23T13:50:48.893Z,100194.03
2022-09-23T13:53:24.882Z,100197.44
2022-09-23T13:56:04.050Z,100197.00
2022-09-23T13:58:37.815Z,100195.38
2022-09-23T14:01:10.464Z,100190.06
2022-09-23T14:03:43.507Z,100185.09
2022-09-23T14:06:17.592Z,100177.22
2022-09-23T14:08:50.844Z,100185.19
2022-09-23T14:11:25.359Z,100173.13
2022-09-23T14:14:08.089Z,100171.25
2022-09-23T14:16:39.840Z,100182.78
2022-09-23T14:19:09.211Z,100178.03
2022-09-23T14:21:39.942Z,100180.28
2022-09-23T14:24:17.508Z,100175.63
2022-09-23T14:26:51.911Z,100172.22
2022-09-23T14:29:24.275Z,100174.97
2022-09-23T14:31:58.531Z,100178.78
2022-09-23T14:34:44.978Z,100176.72
2022-09-23T14:37:42.883Z,100178.59
2022-09-23T14:40:17.287Z,100175.75
2022-09-23T14:42:55.112Z,100168.94
2022-09-23T14:45:29.059Z,100173.06
2022-09-23T14:48:01.593Z,100167.56
2022-09-23T14:50:47.544Z,100164.59
2022-09-23T14:53:39.343Z,100160.88
2022-09-23T14:56:18.104Z,100165.00
2022-09-23T14:58:56.667Z,100164.03
2022-09-23T15:01:36.290Z,100162.00
2022-09-23T15:04:16.015Z,100150.31
2022-09-23T15:06:51.675Z,100161.28
2022-09-23T15:09:26.388Z,100153.97
2022-09-23T15:12:00.583Z,100147.66
2022-09-23T15:14:40.705Z,100163.50
2022-09-23T15:17:35.099Z,100152.59
2022-09-23T15:20:06.803Z,100154.75
2022-09-23T15:22:44.846Z,100147.09
2022-09-23T15:25:19.238Z,100148.88
2022-09-23T15:28:05.991Z,100138.53
2022-09-23T15:30:39.254Z,100148.97
2022-09-23T15:33:09.195Z,100155.97
2022-09-23T15:35:40.812Z,100148.06
2022-09-23T15:38:11.511Z,100157.81
2022-09-23T15:40:41.689Z,100154.59
2022-09-23T15:43:20.554Z,100152.25
2022-09-23T15:45:53.962Z,100151.63
2022-09-23T15:48:25.471Z,100154.63
2022-09-23T15:50:59.853Z,100157.34
2022-09-23T15:53:30.115Z,100153.59
2022-09-23T15:55:59.339Z,100152.19
2022-09-23T15:58:28.540Z,100156.34
2022-09-23T16:01:05.193Z,100144.97
2022-09-23T16:03:36.398Z,100148.38
2022-09-23T16:06:06.465Z,100152.69
2022-09-23T16:08:35.870Z,100147.94
2022-09-23T16:11:08.632Z,100146.81
2022-09-23T16:13:39.637Z,100154.31
2022-09-23T16:16:11.050Z,100155.88
2022-09-23T16:18:44.069Z,100147.88
2022-09-23T16:21:18.360Z,100155.63
2022-09-23T16:23:50.327Z,100152.78
2022-09-23T16:26:21.693Z,100151.63
2022-09-23T16:28:52.830Z,100152.25
2022-09-23T16:31:25.761Z,100157.88
2022-09-23T16:33:55.549Z,100156.72
2022-09-23T16:36:27.182Z,100153.91
2022-09-23T16:38:57.529Z,100153.75
2022-09-23T16:41:29.071Z,100154.44
2022-09-23T16:43:58.155Z,100152.41
2022-09-23T16:46:30.128Z,100154.75
2022-09-23T16:49:00.738Z,100150.16
2022-09-23T16:51:34.441Z,100149.66
2022-09-23T16:54:03.808Z,100150.06
2022-09-23T16:56:33.690Z,100152.19
2022-09-23T16:59:03.078Z,100150.84
2022-09-23T17:01:51.450Z,100149.53
2022-09-23T17:04:22.354Z,100156.75
2022-09-23T17:06:54.524Z,100163.13
2022-09-23T17:09:28.074Z,100156.44
2022-09-23T17:12:10.318Z,100155.03
2022-09-23T17:14:38.970Z,100156.13
2022-09-23T17:17:11.230Z,100155.53
2022-09-23T17:19:41.661Z,100152.25
2022-09-23T17:22:12.715Z,100155.00
2022-09-23T17:24:41.403Z,100153.41
2022-09-23T17:27:11.877Z,100150.91
2022-09-23T17:29:42.275Z,100164.19
2022-09-23T17:32:12.410Z,100165.38
2022-09-23T17:34:41.570Z,100165.78
2022-09-23T17:37:11.119Z,100160.09
2022-09-23T17:39:43.211Z,100165.88
2022-09-23T17:42:12.370Z,100165.56
2022-09-23T17:44:42.424Z,100165.13
2022-09-23T17:47:13.450Z,100170.81
2022-09-23T17:49:43.539Z,100173.63
2022-09-23T17:52:12.939Z,100173.81
2022-09-23T17:54:42.433Z,100163.47
2022-09-23T17:57:13.236Z,100161.81
2022-09-23T17:59:43.071Z,100172.63
2022-09-23T18:02:15.789Z,100175.53
2022-09-23T18:04:44.772Z,100174.06
2022-09-23T18:07:14.049Z,100176.75
2022-09-23T18:09:42.741Z,100165.47
2022-09-23T18:12:12.071Z,100172.66
2022-09-23T18:14:42.626Z,100170.47
2022-09-23T18:17:15.167Z,100165.69
2022-09-23T18:19:45.101Z,100167.81
2022-09-23T18:22:13.815Z,100171.69
2022-09-23T18:24:43.043Z,100164.09
2022-09-23T18:27:12.482Z,100167.00
2022-09-23T18:29:41.393Z,100164.66
2022-09-23T18:32:13.965Z,100166.50
2022-09-23T18:34:44.941Z,100167.50
2022-09-23T18:37:16.059Z,100166.81
2022-09-23T18:39:46.277Z,100161.75
2022-09-23T18:42:18.574Z,100167.41
2022-09-23T18:44:50.164Z,100169.53
2022-09-23T18:47:33.200Z,100162.09
2022-09-23T18:50:21.641Z,100164.88
2022-09-23T18:52:53.626Z,100164.16
2022-09-23T18:55:22.658Z,100162.59
2022-09-23T18:57:54.960Z,100169.72
2022-09-23T19:00:27.697Z,100169.97
2022-09-23T19:02:56.991Z,100168.47
2022-09-23T19:05:27.507Z,100171.25
2022-09-23T19:07:56.498Z,100170.69
2022-09-23T19:10:25.197Z,100171.63
2022-09-23T19:12:54.195Z,100172.66
2022-09-23T19:15:23.472Z,100167.72
2022-09-23T19:17:53.455Z,100171.34
2022-09-23T19:20:25.149Z,100169.81
2022-09-23T19:22:56.814Z,100172.44
2022-09-23T19:25:28.641Z,100167.34
2022-09-23T19:27:59.576Z,100169.19
2022-09-23T19:30:28.513Z,100172.69
2022-09-23T19:32:57.388Z,100165.00
2022-09-23T19:35:26.309Z,100167.66
2022-09-23T19:37:59.852Z,100173.88
2022-09-23T19:40:29.916Z,100172.28
2022-09-23T19:42:59.328Z,100168.91
2022-09-23T19:45:30.269Z,100175.81
2022-09-23T19:47:59.181Z,100171.53
2022-09-23T19:50:27.818Z,100173.25
2022-09-23T19:52:59.706Z,100171.59
2022-09-23T19:55:30.658Z,100173.47
2022-09-23T19:57:59.850Z,100178.75
2022-09-23T20:00:29.298Z,100178.03
2022-09-23T20:02:58.856Z,100177.28
2022-09-23T20:05:29.206Z,100173.91
2022-09-23T20:08:00.506Z,100181.75
2022-09-23T20:10:29.663Z,100180.88
2022-09-23T20:12:59.626Z,100184.34
2022-09-23T20:15:29.413Z,100185.03
2022-09-23T20:17:58.471Z,100181.53
2022-09-23T20:20:27.931Z,100180.75
2022-09-23T20:22:58.580Z,100177.50
2022-09-23T20:25:27.519Z,100184.63
2022-09-23T20:27:55.301Z,100175.16
2022-09-23T20:30:24.400Z,100170.88
2022-09-23T20:32:53.632Z,100162.34
2022-09-23T20:35:22.565Z,100175.38
2022-09-23T20:37:52.263Z,100171.97
2022-09-23T20:40:23.325Z,100172.00
2022-09-23T20:42:53.366Z,100174.72
2022-09-23T20:45:22.051Z,100168.06
2022-09-23T20:47:50.679Z,100165.59
2022-09-23T20:50:30.716Z,100161.28
2022-09-23T20:52:59.735Z,100158.72
2022-09-23T20:55:30.530Z,100158.00
2022-09-23T20:58:01.588Z,100155.47
2022-09-23T21:00:30.778Z,100156.31
2022-09-23T21:03:00.294Z,100152.00
2022-09-23T21:05:29.113Z,100153.75
2022-09-23T21:08:02.634Z,100151.22
2022-09-23T21:10:33.789Z,100146.13
2022-09-23T21:13:04.421Z,100149.66
2022-09-23T21:15:36.350Z,100144.50
2022-09-23T21:18:05.407Z,100154.06
2022-09-23T21:20:34.233Z,100143.75
2022-09-23T21:23:03.302Z,100138.69
2022-09-23T21:25:36.701Z,100145.66
2022-09-23T21:28:05.709Z,100140.53
2022-09-23T21:30:35.271Z,100147.53
2022-09-23T21:33:04.297Z,100155.47
2022-09-23T21:35:34.214Z,100154.78
2022-09-23T21:38:02.820Z,100158.34
2022-09-23T21:40:49.259Z,100150.69
2022-09-23T21:43:20.067Z,100153.16
2022-09-23T21:45:49.580Z,100148.72
2022-09-23T21:48:18.311Z,100147.88
2022-09-23T21:50:55.667Z,100156.44
2022-09-23T21:53:25.170Z,100160.69
2022-09-23T21:55:53.975Z,100150.94
2022-09-23T21:58:24.299Z,100156.81
2022-09-23T22:00:52.806Z,100148.78
2022-09-23T22:03:22.100Z,100153.81
2022-09-23T22:06:04.991Z,100152.94
2022-09-23T22:08:37.281Z,100156.53
2022-09-23T22:11:08.167Z,100155.91
2022-09-23T22:13:38.434Z,100154.44
2022-09-23T22:16:07.532Z,100164.97
2022-09-23T22:18:36.617Z,100165.13
2022-09-23T22:21:07.006Z,100155.69
2022-09-23T22:23:36.490Z,100159.09
2022-09-23T22:26:06.525Z,100159.03
2022-09-23T22:28:52.808Z,100165.88
2022-09-23T22:31:40.760Z,100151.00
2022-09-23T22:34:25.481Z,100153.63
2022-09-23T22:37:02.158Z,100145.94
2022-09-23T22:39:31.896Z,100151.13
2022-09-23T22:42:00.892Z,100144.19
2022-09-23T22:44:30.214Z,100156.34
2022-09-23T22:47:01.362Z,100141.81
2022-09-23T22:49:32.512Z,100144.53
2022-09-23T22:52:05.993Z,100133.41
2022-09-23T22:54:35.050Z,100146.50
2022-09-23T22:57:08.551Z,100136.31
2022-09-23T22:59:38.262Z,100136.50
2022-09-23T23:02:08.561Z,100134.81
2022-09-23T23:04:37.706Z,100137.34
2022-09-23T23:07:07.240Z,100131.31
2022-09-23T23:09:36.351Z,100135.84
2022-09-23T23:12:05.849Z,100135.03
2022-09-23T23:14:35.201Z,100135.16
2022-09-23T23:17:08.508Z,100119.72
2022-09-23T23:19:38.023Z,100126.78
2022-09-23T23:22:07.219Z,100124.25
2022-09-23T23:24:36.187Z,100121.69
2022-09-23T23:27:05.045Z,100122.59
2022-09-23T23:29:33.481Z,100127.81
2022-09-23T23:32:02.475Z,100115.78
2022-09-23T23:34:32.503Z,100123.69
2022-09-23T23:37:01.583Z,100123.72
2022-09-23T23:39:30.416Z,100123.72
2022-09-23T23:41:59.980Z,100124.53
2022-09-23T23:44:31.238Z,100121.94
2022-09-23T23:47:00.364Z,100123.72
2022-09-23T23:49:30.048Z,100116.03
2022-09-23T23:51:59.967Z,100109.16
2022-09-23T23:54:28.576Z,100113.63
2022-09-23T23:56:57.155Z,100123.16
2022-09-23T23:59:26.158Z,100115.44
